createdAt,value
2023-01-06T00:01:03.460Z,0.80
2023-01-06T00:04:05.234Z,0.90
2023-01-06T00:07:07.033Z,1.10
2023-01-06T00:10:09.217Z,0.77
2023-01-06T00:13:11.110Z,0.70
2023-01-06T00:16:16.122Z,1.25
2023-01-06T00:19:17.873Z,1.05
2023-01-06T00:22:19.539Z,1.20
2023-01-06T00:25:21.295Z,1.00
2023-01-06T00:28:23.040Z,0.90
2023-01-06T00:31:26.054Z,1.02
2023-01-06T00:34:27.943Z,1.08
2023-01-06T00:37:29.678Z,1.15
2023-01-06T00:40:31.347Z,0.90
2023-01-06T00:43:34.178Z,1.40
2023-01-06T00:46:37.269Z,0.63
2023-01-06T00:49:38.992Z,1.13
2023-01-06T00:52:40.687Z,1.35
2023-01-06T00:55:42.266Z,1.02
2023-01-06T00:58:43.971Z,0.73
2023-01-06T01:01:49.611Z,1.10
2023-01-06T01:04:51.361Z,0.82
2023-01-06T01:07:52.987Z,1.33
2023-01-06T01:10:55.716Z,0.82
2023-01-06T01:13:57.394Z,1.00
2023-01-06T01:17:01.355Z,0.90
2023-01-06T01:20:04.518Z,1.15
2023-01-06T01:23:06.193Z,1.40
2023-01-06T01:26:07.855Z,1.10
2023-01-06T01:29:11.808Z,1.23
2023-01-06T01:32:14.781Z,1.23
2023-01-06T01:35:16.427Z,1.55
2023-01-06T01:38:18.084Z,1.35
2023-01-06T01:41:22.399Z,1.10
2023-01-06T01:44:59.519Z,1.08
2023-01-06T01:48:07.059Z,1.08
2023-01-06T01:51:17.316Z,0.88
2023-01-06T01:54:23.486Z,0.90
2023-01-06T01:57:30.883Z,1.58
2023-01-06T02:00:33.830Z,0.77
2023-01-06T02:03:37.639Z,0.50
2023-01-06T02:06:41.506Z,1.05
2023-01-06T02:09:50.770Z,1.00
2023-01-06T02:12:57.043Z,0.90
2023-01-06T02:21:41.694Z,0.85
2023-01-06T02:25:40.470Z,1.02
2023-01-06T02:29:00.842Z,0.57
2023-01-06T02:32:14.817Z,0.93
2023-01-06T02:35:34.728Z,0.80
2023-01-06T02:38:49.122Z,0.80
2023-01-06T02:42:02.602Z,1.05
2023-01-06T02:45:14.398Z,0.85
2023-01-06T02:48:23.954Z,0.90
2023-01-06T02:51:36.091Z,0.90
2023-01-06T02:54:43.461Z,0.90
2023-01-06T02:57:50.877Z,1.00
2023-01-06T03:00:59.181Z,0.98
2023-01-06T03:04:10.042Z,1.02
2023-01-06T03:07:16.682Z,1.10
2023-01-06T03:10:22.127Z,1.30
2023-01-06T03:13:30.127Z,1.15
2023-01-06T03:16:33.572Z,1.10
2023-01-06T03:19:37.670Z,1.08
2023-01-06T03:22:40.942Z,1.70
2023-01-06T03:25:43.270Z,1.63
2023-01-06T03:28:46.877Z,1.08
2023-01-06T03:32:00.818Z,1.20
2023-01-06T03:35:25.407Z,1.60
2023-01-06T03:38:39.118Z,0.98
2023-01-06T03:42:03.759Z,1.17
2023-01-06T03:45:17.958Z,1.13
2023-01-06T03:48:39.326Z,0.68
2023-01-06T03:51:48.453Z,0.88
2023-01-06T03:54:57.574Z,1.27
2023-01-06T03:58:02.022Z,1.30
2023-01-06T04:01:05.782Z,1.25
2023-01-06T04:04:07.694Z,1.38
2023-01-06T04:07:10.773Z,1.00
2023-01-06T04:10:17.349Z,1.25
2023-01-06T04:13:21.446Z,1.27
2023-01-06T04:16:23.232Z,1.30
2023-01-06T04:19:24.933Z,1.23
2023-01-06T04:22:28.836Z,1.10
2023-01-06T04:25:30.925Z,1.15
2023-01-06T04:28:32.620Z,1.40
2023-01-06T04:31:35.788Z,1.30
2023-01-06T04:34:37.879Z,1.20
2023-01-06T04:37:41.084Z,0.93
2023-01-06T04:40:43.150Z,1.38
2023-01-06T04:43:44.758Z,0.75
2023-01-06T04:46:49.253Z,0.90
2023-01-06T04:49:50.894Z,1.25
2023-01-06T04:52:53.879Z,0.93
2023-01-06T04:55:55.483Z,1.20
2023-01-06T04:58:58.012Z,1.00
2023-01-06T05:01:59.690Z,0.90
2023-01-06T05:05:01.340Z,1.17
2023-01-06T05:08:04.343Z,0.90
2023-01-06T05:11:08.698Z,1.08
2023-01-06T05:14:10.332Z,1.10
2023-01-06T05:17:11.961Z,1.08
2023-01-06T05:20:13.709Z,1.20
2023-01-06T05:23:16.749Z,1.17
2023-01-06T05:26:20.413Z,1.00
2023-01-06T05:29:22.131Z,1.20
2023-01-06T05:32:23.786Z,1.20
2023-01-06T05:35:25.777Z,1.13
2023-01-06T05:38:28.752Z,1.10
2023-01-06T05:41:30.345Z,1.52
2023-01-06T05:44:32.094Z,1.20
2023-01-06T05:47:33.739Z,0.98
2023-01-06T05:50:35.550Z,1.20
2023-01-06T05:53:40.398Z,1.27
2023-01-06T05:56:42.237Z,1.52
2023-01-06T05:59:46.302Z,1.70
2023-01-06T06:02:48.042Z,1.30
2023-01-06T06:05:49.707Z,1.20
2023-01-06T06:08:52.828Z,1.20
2023-01-06T06:11:54.780Z,1.05
2023-01-06T06:14:56.454Z,1.15
2023-01-06T06:17:58.338Z,1.30
2023-01-06T06:21:01.528Z,1.48
2023-01-06T06:24:05.262Z,1.52
2023-01-06T06:27:06.912Z,1.52
2023-01-06T06:30:09.296Z,1.85
2023-01-06T06:33:10.946Z,1.45
2023-01-06T06:36:15.703Z,1.40
2023-01-06T06:39:18.802Z,1.25
2023-01-06T06:42:20.372Z,1.60
2023-01-06T06:45:22.061Z,1.35
2023-01-06T06:48:23.769Z,1.30
2023-01-06T06:51:25.488Z,1.05
2023-01-06T06:54:28.593Z,1.30
2023-01-06T06:57:30.286Z,1.05
2023-01-06T07:00:31.937Z,1.05
2023-01-06T07:03:33.650Z,1.35
2023-01-06T07:06:35.413Z,1.27
2023-01-06T07:09:38.583Z,0.75
2023-01-06T07:12:40.406Z,0.75
2023-01-06T07:15:42.408Z,0.40
2023-01-06T07:18:44.157Z,0.32
2023-01-06T07:21:46.064Z,0.40
2023-01-06T07:24:51.232Z,0.60
2023-01-06T07:27:57.441Z,0.40
2023-01-06T07:30:59.773Z,0.73
2023-01-06T07:34:01.539Z,0.38
2023-01-06T07:37:03.259Z,0.40
2023-01-06T07:40:07.453Z,0.40
2023-01-06T07:43:10.680Z,0.60
2023-01-06T07:46:12.338Z,0.40
2023-01-06T07:49:14.297Z,0.70
2023-01-06T07:52:15.990Z,0.55
2023-01-06T07:55:19.130Z,0.32
2023-01-06T07:58:23.882Z,0.30
2023-01-06T08:01:25.709Z,0.30
2023-01-06T08:04:27.803Z,0.55
2023-01-06T08:07:31.654Z,0.30
2023-01-06T08:10:34.889Z,0.50
2023-01-06T08:13:37.279Z,0.50
2023-01-06T08:16:39.380Z,0.50
2023-01-06T08:19:40.971Z,1.10
2023-01-06T08:22:42.573Z,0.50
2023-01-06T08:25:45.648Z,0.40
2023-01-06T08:28:47.661Z,0.70
2023-01-06T08:31:49.522Z,0.50
2023-01-06T08:34:51.138Z,0.57
2023-01-06T08:37:52.853Z,0.30
2023-01-06T08:40:56.997Z,0.40
2023-01-06T08:43:58.709Z,0.30
2023-01-06T08:47:00.846Z,0.17
2023-01-06T08:50:02.655Z,0.47
2023-01-06T08:53:04.532Z,0.30
2023-01-06T08:56:13.810Z,0.40
2023-01-06T08:59:17.342Z,0.22
2023-01-06T09:02:19.163Z,0.20
2023-01-06T09:05:21.139Z,0.03
2023-01-06T09:08:23.559Z,0.10
2023-01-06T09:11:27.341Z,0.10
2023-01-06T09:14:29.701Z,0.10
2023-01-06T09:17:34.177Z,0.20
2023-01-06T09:20:36.668Z,0.30
2023-01-06T09:23:38.323Z,0.30
2023-01-06T09:26:41.638Z,0.38
2023-01-06T09:29:43.302Z,0.10
2023-01-06T09:32:44.980Z,0.10
2023-01-06T09:35:47.086Z,0.20
2023-01-06T09:38:48.823Z,0.00
2023-01-06T09:42:14.447Z,0.52
2023-01-06T09:45:19.355Z,0.10
2023-01-06T09:48:25.985Z,0.17
2023-01-06T09:51:29.919Z,0.20
2023-01-06T09:54:35.041Z,0.20
2023-01-06T09:57:41.016Z,0.10
2023-01-06T10:00:44.055Z,0.08
2023-01-06T10:03:47.631Z,0.20
2023-01-06T10:06:58.991Z,0.38
2023-01-06T10:10:14.055Z,0.20
2023-01-06T10:13:32.794Z,0.13
2023-01-06T10:16:48.107Z,0.10
2023-01-06T10:20:02.831Z,0.43
2023-01-06T10:23:14.081Z,0.20
2023-01-06T10:26:25.884Z,0.40
2023-01-06T10:29:33.801Z,0.30
2023-01-06T10:32:37.696Z,0.40
2023-01-06T10:35:39.409Z,0.20
2023-01-06T10:38:43.897Z,0.57
2023-01-06T10:42:15.634Z,0.68
2023-01-06T10:45:18.932Z,0.40
2023-01-06T10:48:26.244Z,0.30
2023-01-06T10:51:38.831Z,0.70
2023-01-06T10:54:42.233Z,0.15
2023-01-06T10:57:44.010Z,0.40
2023-01-06T11:00:59.134Z,0.43
2023-01-06T11:04:07.706Z,0.52
2023-01-06T11:07:14.681Z,0.40
2023-01-06T11:10:26.403Z,0.70
2023-01-06T11:13:33.511Z,0.47
2023-01-06T11:16:37.407Z,0.40
2023-01-06T11:19:40.812Z,0.50
2023-01-06T11:22:43.640Z,0.38
2023-01-06T11:26:01.037Z,0.20
2023-01-06T11:29:18.681Z,0.25
2023-01-06T11:32:24.753Z,0.63
2023-01-06T11:35:30.693Z,0.20
2023-01-06T11:38:39.982Z,0.38
2023-01-06T11:41:47.175Z,0.30
2023-01-06T11:44:48.797Z,0.30
2023-01-06T11:47:51.804Z,0.10
2023-01-06T11:50:55.643Z,0.20
2023-01-06T11:53:57.489Z,0.15
2023-01-06T11:57:01.163Z,0.08
2023-01-06T12:00:15.329Z,0.40
2023-01-06T12:03:26.359Z,0.10
2023-01-06T12:06:33.706Z,0.40
2023-01-06T12:09:40.863Z,0.20
2023-01-06T12:12:42.750Z,0.10
2023-01-06T12:15:49.164Z,0.10
2023-01-06T12:18:52.793Z,0.30
2023-01-06T12:21:55.464Z,0.17
2023-01-06T12:24:59.742Z,0.57
2023-01-06T12:28:04.485Z,0.10
2023-01-06T12:31:10.448Z,0.13
2023-01-06T12:34:19.793Z,0.28
2023-01-06T12:37:27.936Z,0.03
2023-01-06T12:40:33.394Z,0.10
2023-01-06T12:43:41.080Z,0.45
2023-01-06T12:46:50.415Z,0.08
2023-01-06T12:49:57.197Z,0.15
2023-01-06T12:53:09.995Z,0.20
2023-01-06T12:56:40.551Z,0.20
2023-01-06T12:59:52.414Z,0.10
2023-01-06T13:03:05.763Z,0.10
2023-01-06T13:06:25.914Z,0.10
2023-01-06T13:09:40.066Z,0.17
2023-01-06T13:12:52.123Z,0.20
2023-01-06T13:15:57.086Z,0.17
2023-01-06T13:19:09.137Z,0.10
2023-01-06T13:22:17.835Z,0.00
2023-01-06T13:25:33.287Z,0.10
2023-01-06T13:28:49.271Z,0.20
2023-01-06T13:32:10.614Z,0.10
2023-01-06T13:35:38.076Z,0.35
2023-01-06T13:38:59.963Z,0.20
2023-01-06T13:42:06.077Z,0.15
2023-01-06T13:45:15.346Z,0.20
2023-01-06T13:48:20.925Z,0.22
2023-01-06T13:51:27.120Z,0.10
2023-01-06T13:55:08.486Z,0.40
2023-01-06T13:58:40.485Z,0.22
2023-01-06T14:01:42.266Z,0.43
2023-01-06T14:04:48.915Z,0.43
2023-01-06T14:07:55.237Z,0.50
2023-01-06T14:11:02.190Z,0.93
2023-01-06T14:14:07.404Z,0.15
2023-01-06T14:17:28.664Z,0.10
2023-01-06T14:20:33.401Z,0.10
2023-01-06T14:23:35.959Z,0.10
2023-01-06T14:26:46.377Z,0.15
2023-01-06T14:30:05.129Z,0.10
2023-01-06T14:33:35.131Z,0.10
2023-01-06T14:36:37.390Z,0.17
2023-01-06T14:39:41.688Z,0.30
2023-01-06T14:42:45.513Z,0.20
2023-01-06T14:45:49.700Z,0.30
2023-01-06T14:48:59.857Z,0.50
2023-01-06T14:52:12.405Z,0.30
2023-01-06T14:55:18.223Z,0.25
2023-01-06T14:58:30.554Z,0.30
2023-01-06T15:01:37.161Z,0.35
2023-01-06T15:04:39.640Z,0.20
2023-01-06T15:07:55.900Z,0.40
2023-01-06T15:11:12.657Z,0.30
2023-01-06T15:14:31.174Z,0.30
2023-01-06T15:17:34.490Z,0.20
2023-01-06T15:20:41.857Z,0.30
2023-01-06T15:23:47.537Z,0.20
2023-01-06T15:26:51.070Z,0.10
2023-01-06T15:29:55.044Z,0.25
2023-01-06T15:32:59.005Z,0.20
2023-01-06T15:36:01.526Z,0.50
2023-01-06T15:39:05.947Z,0.52
2023-01-06T15:42:10.539Z,0.50
2023-01-06T15:45:23.712Z,0.32
2023-01-06T15:48:29.770Z,0.20
2023-01-06T15:51:31.605Z,0.20
2023-01-06T15:54:37.289Z,0.20
2023-01-06T15:57:39.961Z,0.30
2023-01-06T16:00:48.004Z,0.22
2023-01-06T16:03:53.005Z,0.38
2023-01-06T16:06:55.106Z,0.30
2023-01-06T16:09:56.871Z,0.45
2023-01-06T16:13:15.324Z,0.30
2023-01-06T16:16:29.430Z,0.63
2023-01-06T16:19:33.277Z,0.40
2023-01-06T16:22:37.745Z,0.35
2023-01-06T16:25:39.588Z,0.38
2023-01-06T16:28:45.686Z,0.47
2023-01-06T16:31:47.393Z,0.55
2023-01-06T16:34:52.367Z,0.47
2023-01-06T16:40:59.042Z,0.30
2023-01-06T16:44:00.753Z,0.50
2023-01-06T16:47:02.459Z,0.20
2023-01-06T16:50:15.043Z,0.52
2023-01-06T16:53:19.773Z,0.65
2023-01-06T16:56:23.147Z,0.57
2023-01-06T16:59:26.848Z,0.57
2023-01-06T17:02:28.781Z,0.75
2023-01-06T17:05:31.902Z,0.60
2023-01-06T17:08:37.382Z,0.52
2023-01-06T17:11:39.269Z,0.75
2023-01-06T17:14:41.079Z,0.55
2023-01-06T17:17:43.004Z,0.63
2023-01-06T17:20:46.168Z,0.60
2023-01-06T17:23:50.930Z,0.80
2023-01-06T17:26:56.984Z,0.80
2023-01-06T17:30:01.765Z,0.68
2023-01-06T17:39:20.080Z,0.77
2023-01-06T17:42:27.432Z,0.68
2023-01-06T17:45:30.005Z,0.32
2023-01-06T17:48:32.258Z,0.43
2023-01-06T17:51:36.159Z,0.45
2023-01-06T17:54:56.373Z,0.60
2023-01-06T17:57:59.168Z,0.70
2023-01-06T18:01:01.780Z,1.02
2023-01-06T18:04:09.254Z,0.30
2023-01-06T18:07:13.758Z,0.43
2023-01-06T18:10:17.399Z,0.47
2023-01-06T18:13:21.732Z,0.80
2023-01-06T18:16:28.504Z,0.40
2023-01-06T18:19:34.343Z,0.70
2023-01-06T18:22:40.576Z,0.55
2023-01-06T18:25:42.259Z,1.80
2023-01-06T18:28:43.950Z,0.57
2023-01-06T18:31:47.444Z,0.70
2023-01-06T18:34:50.941Z,0.63
2023-01-06T18:37:59.154Z,0.52
2023-01-06T18:41:02.228Z,0.70
2023-01-06T18:44:05.460Z,0.52
2023-01-06T18:47:13.753Z,0.60
2023-01-06T18:50:32.108Z,0.73
2023-01-06T18:53:40.074Z,0.60
2023-01-06T18:56:41.851Z,0.60
2023-01-06T18:59:43.619Z,0.90
2023-01-06T19:02:45.828Z,0.88
2023-01-06T19:05:47.668Z,1.60
2023-01-06T19:08:51.581Z,0.50
2023-01-06T19:12:00.976Z,0.45
2023-01-06T19:15:15.458Z,0.50
2023-01-06T19:18:19.661Z,0.40
2023-01-06T19:21:23.816Z,0.73
2023-01-06T19:24:43.218Z,0.60
2023-01-06T19:27:48.144Z,0.38
2023-01-06T19:33:57.445Z,0.57
2023-01-06T19:36:59.669Z,0.50
2023-01-06T19:40:04.232Z,0.63
2023-01-06T19:43:13.521Z,0.57
2023-01-06T19:46:21.478Z,0.50
2023-01-06T19:49:25.530Z,0.43
2023-01-06T19:52:31.453Z,0.70
2023-01-06T19:55:34.549Z,0.60
2023-01-06T19:58:36.268Z,0.60
2023-01-06T20:01:38.628Z,0.60
2023-01-06T20:04:41.075Z,0.90
2023-01-06T20:07:42.709Z,0.70
2023-01-06T20:10:48.605Z,0.50
2023-01-06T20:13:50.419Z,0.60
2023-01-06T20:16:52.523Z,0.43
2023-01-06T20:19:54.374Z,0.60
2023-01-06T20:22:56.300Z,0.43
2023-01-06T20:26:01.609Z,0.90
2023-01-06T20:29:04.406Z,0.82
2023-01-06T20:32:06.294Z,0.52
2023-01-06T20:35:09.429Z,1.95
2023-01-06T20:38:11.353Z,0.60
2023-01-06T20:41:14.389Z,0.60
2023-01-06T20:44:16.110Z,0.63
2023-01-06T20:47:17.837Z,0.90
2023-01-06T20:50:20.809Z,0.68
2023-01-06T20:53:22.581Z,0.45
2023-01-06T20:56:25.650Z,0.50
2023-01-06T20:59:27.637Z,0.30
2023-01-06T21:02:29.501Z,0.43
2023-01-06T21:05:31.730Z,0.40
2023-01-06T21:08:33.435Z,0.38
2023-01-06T21:11:36.535Z,0.40
2023-01-06T21:14:38.373Z,0.20
2023-01-06T21:17:40.296Z,0.47
2023-01-06T21:20:41.961Z,0.40
2023-01-06T21:23:43.607Z,0.60
2023-01-06T21:26:46.755Z,0.35
2023-01-06T21:29:48.515Z,0.30
2023-01-06T21:32:50.222Z,0.43
2023-01-06T21:35:51.966Z,0.20
2023-01-06T21:38:53.596Z,0.20
2023-01-06T21:42:15.096Z,0.30
2023-01-06T21:45:16.847Z,0.50
2023-01-06T21:48:20.172Z,0.40
2023-01-06T21:51:22.086Z,0.20
2023-01-06T21:54:24.236Z,0.57
2023-01-06T21:57:28.239Z,0.20
2023-01-06T22:00:30.037Z,0.40
2023-01-06T22:03:31.865Z,0.35
2023-01-06T22:06:34.931Z,0.20
2023-01-06T22:09:38.999Z,0.40
2023-01-06T22:12:43.997Z,0.50
2023-01-06T22:15:46.213Z,0.40
2023-01-06T22:18:47.865Z,0.50
2023-01-06T22:21:49.693Z,0.47
2023-01-06T22:24:53.261Z,0.40
2023-01-06T22:27:58.605Z,0.90
2023-01-06T22:31:00.270Z,0.38
2023-01-06T22:34:02.410Z,1.17
2023-01-06T22:37:04.173Z,0.63
2023-01-06T22:40:07.025Z,0.30
2023-01-06T22:43:10.101Z,0.50
2023-01-06T22:46:11.930Z,0.65
2023-01-06T22:49:14.616Z,0.40
2023-01-06T22:52:16.587Z,0.30
2023-01-06T22:55:18.321Z,0.50
2023-01-06T22:58:21.368Z,0.38
2023-01-06T23:01:23.509Z,0.32
2023-01-06T23:04:25.240Z,0.47
2023-01-06T23:07:26.907Z,0.52
2023-01-06T23:10:28.552Z,0.60
2023-01-06T23:13:32.177Z,0.70
2023-01-06T23:16:36.592Z,0.50
2023-01-06T23:19:38.385Z,0.50
2023-01-06T23:22:40.142Z,0.50
2023-01-06T23:25:41.781Z,0.40
2023-01-06T23:28:45.737Z,0.60
2023-01-06T23:31:47.449Z,0.40
2023-01-06T23:34:49.089Z,0.20
2023-01-06T23:37:50.822Z,0.40
2023-01-06T23:40:52.604Z,0.57
2023-01-06T23:43:56.413Z,0.43
2023-01-06T23:46:58.125Z,0.60
2023-01-06T23:49:59.860Z,0.30
2023-01-06T23:53:01.549Z,0.50
2023-01-06T23:56:05.606Z,0.40
2023-01-06T23:59:11.352Z,0.30
